sensor_id;sensor_type;location;lat;lon;timestamp;temperature;humidity
10905;DHT22;5505;51.450;9.254;2022-09-03T00:02:38;12.30;99.90
10905;DHT22;5505;51.450;9.254;2022-09-03T00:05:34;12.30;99.90
10905;DHT22;5505;51.450;9.254;2022-09-03T00:08:29;12.30;99.90
10905;DHT22;5505;51.450;9.254;2022-09-03T00:11:21;12.30;99.90
10905;DHT22;5505;51.450;9.254;2022-09-03T00:14:13;12.30;99.90
10905;DHT22;5505;51.450;9.254;2022-09-03T00:17:04;12.30;99.90
10905;DHT22;5505;51.450;9.254;2022-09-03T00:19:55;12.30;99.90
10905;DHT22;5505;51.450;9.254;2022-09-03T00:22:46;12.30;99.90
10905;DHT22;5505;51.450;9.254;2022-09-03T00:25:38;12.20;99.90
10905;DHT22;5505;51.450;9.254;2022-09-03T00:28:40;12.20;99.90
10905;DHT22;5505;51.450;9.254;2022-09-03T00:31:31;12.10;99.90
10905;DHT22;5505;51.450;9.254;2022-09-03T00:34:25;12.10;99.90
10905;DHT22;5505;51.450;9.254;2022-09-03T00:37:15;10.60;99.90
10905;DHT22;5505;51.450;9.254;2022-09-03T00:40:03;12.10;99.90
10905;DHT22;5505;51.450;9.254;2022-09-03T00:42:58;12.10;99.90
10905;DHT22;5505;51.450;9.254;2022-09-03T00:45:55;11.90;99.90
10905;DHT22;5505;51.450;9.254;2022-09-03T00:49:00;11.70;99.90
10905;DHT22;5505;51.450;9.254;2022-09-03T00:51:59;11.60;99.90
10905;DHT22;5505;51.450;9.254;2022-09-03T00:54:54;11.60;99.90
10905;DHT22;5505;51.450;9.254;2022-09-03T00:57:50;11.60;99.90
10905;DHT22;5505;51.450;9.254;2022-09-03T01:00:41;11.50;99.90
10905;DHT22;5505;51.450;9.254;2022-09-03T01:03:39;11.60;99.90
10905;DHT22;5505;51.450;9.254;2022-09-03T01:06:36;11.50;99.90
10905;DHT22;5505;51.450;9.254;2022-09-03T01:09:34;11.40;99.90
10905;DHT22;5505;51.450;9.254;2022-09-03T01:12:31;11.40;99.90
10905;DHT22;5505;51.450;9.254;2022-09-03T01:15:28;11.50;99.90
10905;DHT22;5505;51.450;9.254;2022-09-03T01:18:23;11.60;99.90
10905;DHT22;5505;51.450;9.254;2022-09-03T01:21:33;11.70;99.90
10905;DHT22;5505;51.450;9.254;2022-09-03T01:24:47;11.80;99.90
10905;DHT22;5505;51.450;9.254;2022-09-03T01:27:57;11.60;99.90
10905;DHT22;5505;51.450;9.254;2022-09-03T01:31:02;11.60;99.90
10905;DHT22;5505;51.450;9.254;2022-09-03T01:34:03;11.70;99.90
10905;DHT22;5505;51.450;9.254;2022-09-03T01:37:03;11.70;99.90
10905;DHT22;5505;51.450;9.254;2022-09-03T01:40:01;11.80;99.90
10905;DHT22;5505;51.450;9.254;2022-09-03T01:43:00;11.80;99.90
10905;DHT22;5505;51.450;9.254;2022-09-03T01:45:53;11.80;99.90
10905;DHT22;5505;51.450;9.254;2022-09-03T01:48:48;11.80;99.90
10905;DHT22;5505;51.450;9.254;2022-09-03T01:51:38;11.80;99.90
10905;DHT22;5505;51.450;9.254;2022-09-03T01:54:40;11.80;99.90
10905;DHT22;5505;51.450;9.254;2022-09-03T01:57:40;11.80;99.90
10905;DHT22;5505;51.450;9.254;2022-09-03T02:00:31;11.90;99.90
10905;DHT22;5505;51.450;9.254;2022-09-03T02:03:20;11.80;99.90
10905;DHT22;5505;51.450;9.254;2022-09-03T02:06:09;11.70;99.90
10905;DHT22;5505;51.450;9.254;2022-09-03T02:08:57;11.60;99.90
10905;DHT22;5505;51.450;9.254;2022-09-03T02:11:48;11.60;99.90
10905;DHT22;5505;51.450;9.254;2022-09-03T02:14:37;11.60;99.90
10905;DHT22;5505;51.450;9.254;2022-09-03T02:17:25;11.50;99.90
10905;DHT22;5505;51.450;9.254;2022-09-03T02:20:19;11.50;99.90
10905;DHT22;5505;51.450;9.254;2022-09-03T02:23:06;11.40;99.90
10905;DHT22;5505;51.450;9.254;2022-09-03T02:25:55;11.30;99.90
10905;DHT22;5505;51.450;9.254;2022-09-03T02:28:43;11.20;99.90
10905;DHT22;5505;51.450;9.254;2022-09-03T02:31:30;11.10;99.90
10905;DHT22;5505;51.450;9.254;2022-09-03T02:34:18;11.00;99.90
10905;DHT22;5505;51.450;9.254;2022-09-03T02:37:11;10.80;99.90
10905;DHT22;5505;51.450;9.254;2022-09-03T02:39:59;10.60;99.90
10905;DHT22;5505;51.450;9.254;2022-09-03T02:42:46;10.50;99.90
10905;DHT22;5505;51.450;9.254;2022-09-03T02:45:35;10.60;99.90
10905;DHT22;5505;51.450;9.254;2022-09-03T02:48:24;10.40;99.90
10905;DHT22;5505;51.450;9.254;2022-09-03T02:51:13;10.40;99.90
10905;DHT22;5505;51.450;9.254;2022-09-03T02:53:59;10.40;99.90
10905;DHT22;5505;51.450;9.254;2022-09-03T02:56:46;10.40;99.90
10905;DHT22;5505;51.450;9.254;2022-09-03T02:59:34;10.40;99.90
10905;DHT22;5505;51.450;9.254;2022-09-03T03:02:21;10.50;99.90
10905;DHT22;5505;51.450;9.254;2022-09-03T03:05:13;10.40;99.90
10905;DHT22;5505;51.450;9.254;2022-09-03T03:08:05;10.40;99.90
10905;DHT22;5505;51.450;9.254;2022-09-03T03:10:54;10.40;99.90
10905;DHT22;5505;51.450;9.254;2022-09-03T03:13:43;10.40;99.90
10905;DHT22;5505;51.450;9.254;2022-09-03T03:16:30;10.40;99.90
10905;DHT22;5505;51.450;9.254;2022-09-03T03:19:17;10.40;99.90
10905;DHT22;5505;51.450;9.254;2022-09-03T03:22:04;10.40;99.90
10905;DHT22;5505;51.450;9.254;2022-09-03T03:24:53;10.40;99.90
10905;DHT22;5505;51.450;9.254;2022-09-03T03:27:41;10.40;99.90
10905;DHT22;5505;51.450;9.254;2022-09-03T03:30:28;10.40;99.90
10905;DHT22;5505;51.450;9.254;2022-09-03T03:33:15;10.40;99.90
10905;DHT22;5505;51.450;9.254;2022-09-03T03:36:06;10.40;99.90
10905;DHT22;5505;51.450;9.254;2022-09-03T03:38:54;10.20;99.90
10905;DHT22;5505;51.450;9.254;2022-09-03T03:41:43;10.50;99.90
10905;DHT22;5505;51.450;9.254;2022-09-03T03:44:30;10.50;99.90
10905;DHT22;5505;51.450;9.254;2022-09-03T03:47:16;10.50;99.90
10905;DHT22;5505;51.450;9.254;2022-09-03T03:50:04;10.50;99.90
10905;DHT22;5505;51.450;9.254;2022-09-03T03:52:51;10.50;99.90
10905;DHT22;5505;51.450;9.254;2022-09-03T03:55:38;10.50;99.90
10905;DHT22;5505;51.450;9.254;2022-09-03T03:58:29;10.40;99.90
10905;DHT22;5505;51.450;9.254;2022-09-03T04:01:18;10.50;99.90
10905;DHT22;5505;51.450;9.254;2022-09-03T04:04:05;10.50;99.90
10905;DHT22;5505;51.450;9.254;2022-09-03T04:06:52;10.40;99.90
10905;DHT22;5505;51.450;9.254;2022-09-03T04:09:39;10.40;99.90
10905;DHT22;5505;51.450;9.254;2022-09-03T04:12:26;10.40;99.90
10905;DHT22;5505;51.450;9.254;2022-09-03T04:15:14;10.30;99.90
10905;DHT22;5505;51.450;9.254;2022-09-03T04:18:01;10.30;99.90
10905;DHT22;5505;51.450;9.254;2022-09-03T04:20:48;10.20;99.90
10905;DHT22;5505;51.450;9.254;2022-09-03T04:23:36;10.20;99.90
10905;DHT22;5505;51.450;9.254;2022-09-03T04:26:25;10.20;99.90
10905;DHT22;5505;51.450;9.254;2022-09-03T04:29:15;10.20;99.90
10905;DHT22;5505;51.450;9.254;2022-09-03T04:32:04;10.20;99.90
10905;DHT22;5505;51.450;9.254;2022-09-03T04:35:09;10.20;99.90
10905;DHT22;5505;51.450;9.254;2022-09-03T04:37:57;10.20;99.90
10905;DHT22;5505;51.450;9.254;2022-09-03T04:40:50;10.20;99.90
10905;DHT22;5505;51.450;9.254;2022-09-03T04:43:38;10.10;99.90
10905;DHT22;5505;51.450;9.254;2022-09-03T04:46:27;10.10;99.90
10905;DHT22;5505;51.450;9.254;2022-09-03T04:49:19;10.10;99.90
10905;DHT22;5505;51.450;9.254;2022-09-03T04:52:06;10.10;99.90
10905;DHT22;5505;51.450;9.254;2022-09-03T04:54:52;10.10;99.90
10905;DHT22;5505;51.450;9.254;2022-09-03T04:57:41;10.10;99.90
10905;DHT22;5505;51.450;9.254;2022-09-03T05:00:28;10.10;99.90
10905;DHT22;5505;51.450;9.254;2022-09-03T05:03:15;10.20;99.90
10905;DHT22;5505;51.450;9.254;2022-09-03T05:06:04;10.40;99.90
10905;DHT22;5505;51.450;9.254;2022-09-03T05:08:53;10.40;99.90
10905;DHT22;5505;51.450;9.254;2022-09-03T05:11:40;10.30;99.90
10905;DHT22;5505;51.450;9.254;2022-09-03T05:14:27;10.20;99.90
10905;DHT22;5505;51.450;9.254;2022-09-03T05:17:14;10.20;99.90
10905;DHT22;5505;51.450;9.254;2022-09-03T05:20:01;10.30;99.90
10905;DHT22;5505;51.450;9.254;2022-09-03T05:22:50;10.40;99.90
10905;DHT22;5505;51.450;9.254;2022-09-03T05:25:37;10.60;99.90
10905;DHT22;5505;51.450;9.254;2022-09-03T05:28:24;10.70;99.90
10905;DHT22;5505;51.450;9.254;2022-09-03T05:31:13;10.80;99.90
10905;DHT22;5505;51.450;9.254;2022-09-03T05:34:02;10.90;99.90
10905;DHT22;5505;51.450;9.254;2022-09-03T05:36:49;11.10;99.90
10905;DHT22;5505;51.450;9.254;2022-09-03T05:39:38;11.30;99.90
10905;DHT22;5505;51.450;9.254;2022-09-03T05:42:25;11.50;99.90
10905;DHT22;5505;51.450;9.254;2022-09-03T05:45:12;11.70;99.90
10905;DHT22;5505;51.450;9.254;2022-09-03T05:47:59;11.90;99.90
10905;DHT22;5505;51.450;9.254;2022-09-03T05:50:47;12.00;99.90
10905;DHT22;5505;51.450;9.254;2022-09-03T05:53:35;12.20;99.90
10905;DHT22;5505;51.450;9.254;2022-09-03T05:56:25;12.30;99.90
10905;DHT22;5505;51.450;9.254;2022-09-03T05:59:13;12.40;99.90
10905;DHT22;5505;51.450;9.254;2022-09-03T06:01:59;12.60;99.90
10905;DHT22;5505;51.450;9.254;2022-09-03T06:04:46;12.70;99.90
10905;DHT22;5505;51.450;9.254;2022-09-03T06:07:33;12.90;99.90
10905;DHT22;5505;51.450;9.254;2022-09-03T06:10:20;13.00;99.90
10905;DHT22;5505;51.450;9.254;2022-09-03T06:13:08;13.20;99.90
10905;DHT22;5505;51.450;9.254;2022-09-03T06:15:56;13.30;99.90
10905;DHT22;5505;51.450;9.254;2022-09-03T06:18:43;13.50;99.90
10905;DHT22;5505;51.450;9.254;2022-09-03T06:21:30;13.70;99.90
10905;DHT22;5505;51.450;9.254;2022-09-03T06:24:18;13.70;99.90
10905;DHT22;5505;51.450;9.254;2022-09-03T06:27:07;13.90;99.90
10905;DHT22;5505;51.450;9.254;2022-09-03T06:29:55;14.00;99.90
10905;DHT22;5505;51.450;9.254;2022-09-03T06:32:44;14.10;99.90
10905;DHT22;5505;51.450;9.254;2022-09-03T06:35:31;14.10;99.90
10905;DHT22;5505;51.450;9.254;2022-09-03T06:38:18;14.30;99.90
10905;DHT22;5505;51.450;9.254;2022-09-03T06:41:07;14.30;99.90
10905;DHT22;5505;51.450;9.254;2022-09-03T06:43:57;14.40;99.90
10905;DHT22;5505;51.450;9.254;2022-09-03T06:46:49;14.50;99.90
10905;DHT22;5505;51.450;9.254;2022-09-03T06:49:38;14.60;99.90
10905;DHT22;5505;51.450;9.254;2022-09-03T06:52:25;14.70;99.90
10905;DHT22;5505;51.450;9.254;2022-09-03T06:55:12;14.90;99.90
10905;DHT22;5505;51.450;9.254;2022-09-03T06:57:59;15.00;99.90
10905;DHT22;5505;51.450;9.254;2022-09-03T07:00:46;15.10;99.90
10905;DHT22;5505;51.450;9.254;2022-09-03T07:03:36;15.30;99.90
10905;DHT22;5505;51.450;9.254;2022-09-03T07:06:24;15.50;99.90
10905;DHT22;5505;51.450;9.254;2022-09-03T07:09:11;15.60;99.90
10905;DHT22;5505;51.450;9.254;2022-09-03T07:11:59;15.80;99.90
10905;DHT22;5505;51.450;9.254;2022-09-03T07:14:46;16.00;99.90
10905;DHT22;5505;51.450;9.254;2022-09-03T07:17:33;16.20;99.90
10905;DHT22;5505;51.450;9.254;2022-09-03T07:20:21;16.40;99.90
10905;DHT22;5505;51.450;9.254;2022-09-03T07:23:08;16.60;99.90
10905;DHT22;5505;51.450;9.254;2022-09-03T07:25:56;16.80;99.90
10905;DHT22;5505;51.450;9.254;2022-09-03T07:28:43;17.00;99.90
10905;DHT22;5505;51.450;9.254;2022-09-03T07:31:33;17.10;99.90
10905;DHT22;5505;51.450;9.254;2022-09-03T07:34:21;17.30;99.90
10905;DHT22;5505;51.450;9.254;2022-09-03T07:37:12;17.40;99.90
10905;DHT22;5505;51.450;9.254;2022-09-03T07:40:00;17.60;99.90
10905;DHT22;5505;51.450;9.254;2022-09-03T07:42:47;17.70;99.90
10905;DHT22;5505;51.450;9.254;2022-09-03T07:45:34;17.90;99.90
10905;DHT22;5505;51.450;9.254;2022-09-03T07:48:23;17.90;99.90
10905;DHT22;5505;51.450;9.254;2022-09-03T07:51:09;18.10;99.90
10905;DHT22;5505;51.450;9.254;2022-09-03T07:54:00;18.20;99.90
10905;DHT22;5505;51.450;9.254;2022-09-03T07:56:49;18.40;99.90
10905;DHT22;5505;51.450;9.254;2022-09-03T07:59:36;18.60;99.90
10905;DHT22;5505;51.450;9.254;2022-09-03T08:02:23;18.70;99.90
10905;DHT22;5505;51.450;9.254;2022-09-03T08:05:10;18.80;99.90
10905;DHT22;5505;51.450;9.254;2022-09-03T08:07:58;18.80;99.90
10905;DHT22;5505;51.450;9.254;2022-09-03T08:10:46;18.90;99.90
10905;DHT22;5505;51.450;9.254;2022-09-03T08:13:33;18.90;99.90
10905;DHT22;5505;51.450;9.254;2022-09-03T08:16:20;19.00;99.90
10905;DHT22;5505;51.450;9.254;2022-09-03T08:19:08;19.10;99.90
10905;DHT22;5505;51.450;9.254;2022-09-03T08:21:55;19.20;99.90
10905;DHT22;5505;51.450;9.254;2022-09-03T08:24:42;19.30;99.90
10905;DHT22;5505;51.450;9.254;2022-09-03T08:27:32;19.50;99.90
10905;DHT22;5505;51.450;9.254;2022-09-03T08:30:19;19.40;99.90
10905;DHT22;5505;51.450;9.254;2022-09-03T08:33:06;19.80;99.90
10905;DHT22;5505;51.450;9.254;2022-09-03T08:35:53;19.80;99.90
10905;DHT22;5505;51.450;9.254;2022-09-03T08:38:41;19.90;99.90
10905;DHT22;5505;51.450;9.254;2022-09-03T08:44:45;20.10;99.90
10905;DHT22;5505;51.450;9.254;2022-09-03T08:47:36;20.20;99.90
10905;DHT22;5505;51.450;9.254;2022-09-03T08:50:26;20.30;99.90
10905;DHT22;5505;51.450;9.254;2022-09-03T08:53:18;20.40;99.90
10905;DHT22;5505;51.450;9.254;2022-09-03T08:56:08;20.50;99.90
10905;DHT22;5505;51.450;9.254;2022-09-03T08:58:56;20.60;99.90
10905;DHT22;5505;51.450;9.254;2022-09-03T09:01:53;20.70;99.90
10905;DHT22;5505;51.450;9.254;2022-09-03T09:04:52;20.90;99.90
10905;DHT22;5505;51.450;9.254;2022-09-03T09:07:46;21.00;99.90
10905;DHT22;5505;51.450;9.254;2022-09-03T09:10:40;21.20;99.20
10905;DHT22;5505;51.450;9.254;2022-09-03T09:13:36;21.20;99.30
10905;DHT22;5505;51.450;9.254;2022-09-03T09:16:35;21.20;99.50
10905;DHT22;5505;51.450;9.254;2022-09-03T09:19:35;21.30;99.00
10905;DHT22;5505;51.450;9.254;2022-09-03T09:22:27;21.20;98.90
10905;DHT22;5505;51.450;9.254;2022-09-03T09:25:18;21.40;99.40
10905;DHT22;5505;51.450;9.254;2022-09-03T09:28:13;21.40;99.10
10905;DHT22;5505;51.450;9.254;2022-09-03T09:31:04;21.50;98.90
10905;DHT22;5505;51.450;9.254;2022-09-03T09:33:52;21.60;98.90
10905;DHT22;5505;51.450;9.254;2022-09-03T09:36:47;21.80;98.50
10905;DHT22;5505;51.450;9.254;2022-09-03T09:39:34;21.80;98.80
10905;DHT22;5505;51.450;9.254;2022-09-03T09:42:22;21.80;98.30
10905;DHT22;5505;51.450;9.254;2022-09-03T09:45:10;21.90;98.50
10905;DHT22;5505;51.450;9.254;2022-09-03T09:47:56;21.90;97.30
10905;DHT22;5505;51.450;9.254;2022-09-03T09:50:44;21.90;97.20
10905;DHT22;5505;51.450;9.254;2022-09-03T09:53:32;22.00;97.30
10905;DHT22;5505;51.450;9.254;2022-09-03T09:56:21;22.00;96.80
10905;DHT22;5505;51.450;9.254;2022-09-03T09:59:10;22.20;96.60
10905;DHT22;5505;51.450;9.254;2022-09-03T10:02:13;22.10;97.10
10905;DHT22;5505;51.450;9.254;2022-09-03T10:05:11;22.30;97.10
10905;DHT22;5505;51.450;9.254;2022-09-03T10:08:00;22.50;96.40
10905;DHT22;5505;51.450;9.254;2022-09-03T10:10:50;22.50;96.20
10905;DHT22;5505;51.450;9.254;2022-09-03T10:13:41;22.80;95.80
10905;DHT22;5505;51.450;9.254;2022-09-03T10:16:32;22.60;95.70
10905;DHT22;5505;51.450;9.254;2022-09-03T10:19:26;22.70;95.90
10905;DHT22;5505;51.450;9.254;2022-09-03T10:22:18;22.80;95.40
10905;DHT22;5505;51.450;9.254;2022-09-03T10:25:07;22.60;96.50
10905;DHT22;5505;51.450;9.254;2022-09-03T10:27:57;22.60;95.70
10905;DHT22;5505;51.450;9.254;2022-09-03T10:30:59;22.80;95.90
10905;DHT22;5505;51.450;9.254;2022-09-03T10:33:51;23.00;95.30
10905;DHT22;5505;51.450;9.254;2022-09-03T10:36:48;23.10;95.10
10905;DHT22;5505;51.450;9.254;2022-09-03T10:39:49;23.10;94.70
10905;DHT22;5505;51.450;9.254;2022-09-03T10:42:43;22.90;95.40
10905;DHT22;5505;51.450;9.254;2022-09-03T10:45:36;22.90;95.10
10905;DHT22;5505;51.450;9.254;2022-09-03T10:48:44;22.90;94.50
10905;DHT22;5505;51.450;9.254;2022-09-03T10:51:41;22.70;95.50
10905;DHT22;5505;51.450;9.254;2022-09-03T10:54:40;22.60;95.50
10905;DHT22;5505;51.450;9.254;2022-09-03T10:57:37;22.60;95.20
10905;DHT22;5505;51.450;9.254;2022-09-03T11:00:27;22.50;95.70
10905;DHT22;5505;51.450;9.254;2022-09-03T11:03:41;22.40;95.40
10905;DHT22;5505;51.450;9.254;2022-09-03T11:06:40;22.70;95.80
10905;DHT22;5505;51.450;9.254;2022-09-03T11:09:34;22.90;94.90
10905;DHT22;5505;51.450;9.254;2022-09-03T11:12:25;22.80;94.90
10905;DHT22;5505;51.450;9.254;2022-09-03T11:15:22;22.80;95.60
10905;DHT22;5505;51.450;9.254;2022-09-03T11:18:15;22.90;94.70
10905;DHT22;5505;51.450;9.254;2022-09-03T11:21:11;23.20;94.60
10905;DHT22;5505;51.450;9.254;2022-09-03T11:24:05;23.20;94.70
10905;DHT22;5505;51.450;9.254;2022-09-03T11:27:01;23.00;94.00
10905;DHT22;5505;51.450;9.254;2022-09-03T11:29:57;22.70;94.40
10905;DHT22;5505;51.450;9.254;2022-09-03T11:32:51;22.70;94.50
10905;DHT22;5505;51.450;9.254;2022-09-03T11:35:40;22.80;94.20
10905;DHT22;5505;51.450;9.254;2022-09-03T11:38:29;23.10;94.40
10905;DHT22;5505;51.450;9.254;2022-09-03T11:41:24;23.20;94.00
10905;DHT22;5505;51.450;9.254;2022-09-03T11:44:17;23.30;94.10
10905;DHT22;5505;51.450;9.254;2022-09-03T11:47:14;23.40;93.70
10905;DHT22;5505;51.450;9.254;2022-09-03T11:50:07;23.30;93.90
10905;DHT22;5505;51.450;9.254;2022-09-03T11:53:07;23.10;93.50
10905;DHT22;5505;51.450;9.254;2022-09-03T11:56:00;22.80;94.20
10905;DHT22;5505;51.450;9.254;2022-09-03T11:59:03;22.80;94.70
10905;DHT22;5505;51.450;9.254;2022-09-03T12:01:55;23.00;93.80
10905;DHT22;5505;51.450;9.254;2022-09-03T12:04:50;23.00;94.20
10905;DHT22;5505;51.450;9.254;2022-09-03T12:08:08;22.90;94.50
10905;DHT22;5505;51.450;9.254;2022-09-03T12:11:05;22.90;93.60
10905;DHT22;5505;51.450;9.254;2022-09-03T12:14:03;22.80;93.40
10905;DHT22;5505;51.450;9.254;2022-09-03T12:17:10;22.70;93.80
10905;DHT22;5505;51.450;9.254;2022-09-03T12:19:58;22.60;93.90
10905;DHT22;5505;51.450;9.254;2022-09-03T12:22:45;22.60;94.10
10905;DHT22;5505;51.450;9.254;2022-09-03T12:25:32;22.70;93.80
10905;DHT22;5505;51.450;9.254;2022-09-03T12:28:22;22.80;93.90
10905;DHT22;5505;51.450;9.254;2022-09-03T12:31:14;22.90;94.10
10905;DHT22;5505;51.450;9.254;2022-09-03T12:34:09;22.70;93.60
10905;DHT22;5505;51.450;9.254;2022-09-03T12:36:57;22.60;94.00
10905;DHT22;5505;51.450;9.254;2022-09-03T12:39:49;22.50;93.80
10905;DHT22;5505;51.450;9.254;2022-09-03T12:42:37;22.40;93.80
10905;DHT22;5505;51.450;9.254;2022-09-03T12:45:25;22.40;94.10
10905;DHT22;5505;51.450;9.254;2022-09-03T12:48:13;22.50;94.50
10905;DHT22;5505;51.450;9.254;2022-09-03T12:51:02;22.50;93.80
10905;DHT22;5505;51.450;9.254;2022-09-03T12:53:50;22.60;93.60
10905;DHT22;5505;51.450;9.254;2022-09-03T12:56:38;22.50;93.80
10905;DHT22;5505;51.450;9.254;2022-09-03T12:59:27;22.50;93.90
10905;DHT22;5505;51.450;9.254;2022-09-03T13:02:22;22.60;93.90
10905;DHT22;5505;51.450;9.254;2022-09-03T13:05:15;22.50;93.90
10905;DHT22;5505;51.450;9.254;2022-09-03T13:08:04;22.40;94.80
10905;DHT22;5505;51.450;9.254;2022-09-03T13:10:54;22.40;94.50
10905;DHT22;5505;51.450;9.254;2022-09-03T13:13:51;22.30;94.50
10905;DHT22;5505;51.450;9.254;2022-09-03T13:17:04;22.20;94.30
10905;DHT22;5505;51.450;9.254;2022-09-03T13:20:15;22.30;94.70
10905;DHT22;5505;51.450;9.254;2022-09-03T13:23:13;22.40;94.80
10905;DHT22;5505;51.450;9.254;2022-09-03T13:26:10;22.40;94.30
10905;DHT22;5505;51.450;9.254;2022-09-03T13:29:17;22.40;94.60
10905;DHT22;5505;51.450;9.254;2022-09-03T13:32:16;22.40;94.50
10905;DHT22;5505;51.450;9.254;2022-09-03T13:35:13;22.50;94.30
10905;DHT22;5505;51.450;9.254;2022-09-03T13:38:10;22.50;94.30
10905;DHT22;5505;51.450;9.254;2022-09-03T13:41:02;22.50;94.50
10905;DHT22;5505;51.450;9.254;2022-09-03T13:43:56;22.40;94.60
10905;DHT22;5505;51.450;9.254;2022-09-03T13:46:47;22.40;94.60
10905;DHT22;5505;51.450;9.254;2022-09-03T13:49:41;22.40;94.30
10905;DHT22;5505;51.450;9.254;2022-09-03T13:52:52;22.50;94.30
10905;DHT22;5505;51.450;9.254;2022-09-03T13:55:45;22.40;95.00
10905;DHT22;5505;51.450;9.254;2022-09-03T13:58:36;22.50;94.40
10905;DHT22;5505;51.450;9.254;2022-09-03T14:01:44;22.50;94.50
10905;DHT22;5505;51.450;9.254;2022-09-03T14:04:53;22.50;94.70
10905;DHT22;5505;51.450;9.254;2022-09-03T14:07:53;22.60;94.30
10905;DHT22;5505;51.450;9.254;2022-09-03T14:10:51;22.60;94.30
10905;DHT22;5505;51.450;9.254;2022-09-03T14:13:48;22.70;94.30
10905;DHT22;5505;51.450;9.254;2022-09-03T14:16:43;22.70;94.30
10905;DHT22;5505;51.450;9.254;2022-09-03T14:19:38;22.70;94.30
10905;DHT22;5505;51.450;9.254;2022-09-03T14:22:34;22.70;94.30
10905;DHT22;5505;51.450;9.254;2022-09-03T14:25:26;22.60;94.30
10905;DHT22;5505;51.450;9.254;2022-09-03T14:28:19;22.50;94.60
10905;DHT22;5505;51.450;9.254;2022-09-03T14:31:20;22.50;95.50
10905;DHT22;5505;51.450;9.254;2022-09-03T14:34:14;22.60;94.70
10905;DHT22;5505;51.450;9.254;2022-09-03T14:37:08;22.80;94.40
10905;DHT22;5505;51.450;9.254;2022-09-03T14:40:03;22.90;94.00
10905;DHT22;5505;51.450;9.254;2022-09-03T14:43:06;22.80;94.70
10905;DHT22;5505;51.450;9.254;2022-09-03T14:46:12;22.60;94.60
10905;DHT22;5505;51.450;9.254;2022-09-03T14:49:14;22.60;94.40
10905;DHT22;5505;51.450;9.254;2022-09-03T14:52:14;22.60;94.40
10905;DHT22;5505;51.450;9.254;2022-09-03T14:55:14;22.50;94.30
10905;DHT22;5505;51.450;9.254;2022-09-03T14:58:20;22.50;94.50
10905;DHT22;5505;51.450;9.254;2022-09-03T15:01:11;22.50;94.50
10905;DHT22;5505;51.450;9.254;2022-09-03T15:04:27;22.50;94.80
10905;DHT22;5505;51.450;9.254;2022-09-03T15:07:28;22.40;94.50
10905;DHT22;5505;51.450;9.254;2022-09-03T15:10:24;22.40;94.90
10905;DHT22;5505;51.450;9.254;2022-09-03T15:13:17;22.40;94.60
10905;DHT22;5505;51.450;9.254;2022-09-03T15:16:19;22.40;94.50
10905;DHT22;5505;51.450;9.254;2022-09-03T15:19:13;22.30;94.40
10905;DHT22;5505;51.450;9.254;2022-09-03T15:22:11;22.30;94.60
10905;DHT22;5505;51.450;9.254;2022-09-03T15:25:09;22.30;94.60
10905;DHT22;5505;51.450;9.254;2022-09-03T15:28:04;22.30;94.90
10905;DHT22;5505;51.450;9.254;2022-09-03T15:30:59;22.20;94.20
10905;DHT22;5505;51.450;9.254;2022-09-03T15:33:53;22.20;94.20
10905;DHT22;5505;51.450;9.254;2022-09-03T15:36:46;22.20;94.40
10905;DHT22;5505;51.450;9.254;2022-09-03T15:39:39;22.10;94.30
10905;DHT22;5505;51.450;9.254;2022-09-03T15:42:28;22.10;94.50
10905;DHT22;5505;51.450;9.254;2022-09-03T15:45:24;22.00;94.60
10905;DHT22;5505;51.450;9.254;2022-09-03T15:48:22;22.00;95.10
10905;DHT22;5505;51.450;9.254;2022-09-03T15:51:16;22.00;95.30
10905;DHT22;5505;51.450;9.254;2022-09-03T15:54:11;21.90;95.10
10905;DHT22;5505;51.450;9.254;2022-09-03T15:57:04;21.80;94.90
10905;DHT22;5505;51.450;9.254;2022-09-03T15:59:58;21.80;95.20
10905;DHT22;5505;51.450;9.254;2022-09-03T16:02:50;21.70;95.50
10905;DHT22;5505;51.450;9.254;2022-09-03T16:05:45;21.70;95.60
10905;DHT22;5505;51.450;9.254;2022-09-03T16:08:41;21.70;95.50
10905;DHT22;5505;51.450;9.254;2022-09-03T16:11:35;21.70;95.60
10905;DHT22;5505;51.450;9.254;2022-09-03T16:14:27;21.60;96.30
10905;DHT22;5505;51.450;9.254;2022-09-03T16:17:22;21.70;96.60
10905;DHT22;5505;51.450;9.254;2022-09-03T16:20:16;21.70;96.80
10905;DHT22;5505;51.450;9.254;2022-09-03T16:23:10;21.60;96.90
10905;DHT22;5505;51.450;9.254;2022-09-03T16:26:03;21.60;97.30
10905;DHT22;5505;51.450;9.254;2022-09-03T16:28:52;21.60;97.30
10905;DHT22;5505;51.450;9.254;2022-09-03T16:31:51;21.60;97.40
10905;DHT22;5505;51.450;9.254;2022-09-03T16:34:53;21.60;97.20
10905;DHT22;5505;51.450;9.254;2022-09-03T16:37:54;21.50;97.60
10905;DHT22;5505;51.450;9.254;2022-09-03T16:40:50;21.40;97.40
10905;DHT22;5505;51.450;9.254;2022-09-03T16:43:45;21.40;97.10
10905;DHT22;5505;51.450;9.254;2022-09-03T16:46:39;21.30;97.00
10905;DHT22;5505;51.450;9.254;2022-09-03T16:49:38;21.30;96.80
10905;DHT22;5505;51.450;9.254;2022-09-03T16:52:39;21.20;96.90
10905;DHT22;5505;51.450;9.254;2022-09-03T16:55:47;21.10;96.60
10905;DHT22;5505;51.450;9.254;2022-09-03T16:58:49;21.10;96.50
10905;DHT22;5505;51.450;9.254;2022-09-03T17:01:51;21.10;96.80
10905;DHT22;5505;51.450;9.254;2022-09-03T17:05:06;21.00;96.90
10905;DHT22;5505;51.450;9.254;2022-09-03T17:08:10;20.90;97.00
10905;DHT22;5505;51.450;9.254;2022-09-03T17:11:09;20.90;97.50
10905;DHT22;5505;51.450;9.254;2022-09-03T17:14:10;20.80;98.10
10905;DHT22;5505;51.450;9.254;2022-09-03T17:17:06;20.70;98.20
10905;DHT22;5505;51.450;9.254;2022-09-03T17:20:00;20.60;98.70
10905;DHT22;5505;51.450;9.254;2022-09-03T17:23:00;20.60;98.70
10905;DHT22;5505;51.450;9.254;2022-09-03T17:25:57;20.60;98.90
10905;DHT22;5505;51.450;9.254;2022-09-03T17:28:56;20.50;99.00
10905;DHT22;5505;51.450;9.254;2022-09-03T17:31:49;20.50;99.30
10905;DHT22;5505;51.450;9.254;2022-09-03T17:34:49;20.40;99.30
10905;DHT22;5505;51.450;9.254;2022-09-03T17:37:48;20.30;99.50
10905;DHT22;5505;51.450;9.254;2022-09-03T17:40:52;20.30;99.70
10905;DHT22;5505;51.450;9.254;2022-09-03T17:43:46;20.30;99.90
10905;DHT22;5505;51.450;9.254;2022-09-03T17:46:44;20.20;99.90
10905;DHT22;5505;51.450;9.254;2022-09-03T17:49:40;20.10;99.90
10905;DHT22;5505;51.450;9.254;2022-09-03T17:52:34;20.20;99.90
10905;DHT22;5505;51.450;9.254;2022-09-03T17:55:30;20.10;99.90
10905;DHT22;5505;51.450;9.254;2022-09-03T17:58:21;20.00;99.90
10905;DHT22;5505;51.450;9.254;2022-09-03T18:01:14;20.00;99.90
10905;DHT22;5505;51.450;9.254;2022-09-03T18:04:14;19.90;99.90
10905;DHT22;5505;51.450;9.254;2022-09-03T18:07:11;19.90;99.90
10905;DHT22;5505;51.450;9.254;2022-09-03T18:10:06;19.80;99.90
10905;DHT22;5505;51.450;9.254;2022-09-03T18:13:02;19.80;99.90
10905;DHT22;5505;51.450;9.254;2022-09-03T18:15:54;19.70;99.90
10905;DHT22;5505;51.450;9.254;2022-09-03T18:19:01;19.70;99.90
10905;DHT22;5505;51.450;9.254;2022-09-03T18:21:49;19.70;99.90
10905;DHT22;5505;51.450;9.254;2022-09-03T18:24:58;19.60;99.90
10905;DHT22;5505;51.450;9.254;2022-09-03T18:28:05;19.50;99.90
10905;DHT22;5505;51.450;9.254;2022-09-03T18:31:12;19.50;99.90
10905;DHT22;5505;51.450;9.254;2022-09-03T18:34:28;19.50;99.90